Heavy Weather-kuvia

<< < (21/49) > >>

Assiini:
HK:lla pääsee treenaamaan näin sunnuntai-aamuna vähän puuskissa laskeutumista

EFHK 260420Z 20021G31KT 9999 FEW020 SCT023 BKN035 10/05 Q1010 BECMG 6000 RA

Tässä parit fotot...

Ensin yritettiin testimielessä kunnon sivutuulilaskua 33:lle mutta meni päin peetä, kaikin puolin..
[ Attachment not found - or removed ]

Tuuli 212/41
[ Attachment not found - or removed ]

Ja sitten 22L:lle hitusen onnistuneemmin
[ Attachment not found - or removed ]

[ Attachment not found - or removed ]

Mixual:
Tänään oli mielenkiintoinen sää lennellä, joten otin "vispilän" esiin ja vedin EFSI-EFHK legin. Tälläistä oli EFHK:lla 22L finaalissa. Tuulet 190/20, eli ilmeisesti vähän tyyntynyt.


[ Attachment not found - or removed ]

Ezku:
Lähestytään EFHK:ta, hienot pilvet. 
[ Attachment not found - or removed ]

Finaalissa 22L.
[ Attachment not found - or removed ]

kinkkis:
ESSA-EFHK ja kaamee myötätuuli niin nopeesti kipitti 
Hienoo pilvee juu kyllä.

Osguu:
Quote

Lähestytään EFHK:ta, hienot pilvet. 



Ei, vaan uskomattoman upeat pilvet

Ei tuo kyllä Lontoossakaan mikään hieno ilma ollut. TOM253C Kossille


[ Attachment not found - or removed ]

[ Attachment not found - or removed ]

Navigation

Up one level

Next page

Previous page